sensor_id;sensor_type;location;lat;lon;timestamp;pressure;altitude;pressure_sealevel;temperature;humidity
28306;BME280;7516;43.570;1.448;2023-02-14T00:01:24;101197.91;;;6.73;100.00
28306;BME280;7516;43.570;1.448;2023-02-14T00:03:52;101190.81;;;6.75;100.00
28306;BME280;7516;43.570;1.448;2023-02-14T00:06:19;101190.81;;;6.75;100.00
28306;BME280;7516;43.570;1.448;2023-02-14T00:08:47;101198.53;;;6.77;100.00
28306;BME280;7516;43.570;1.448;2023-02-14T00:11:17;101195.31;;;6.73;100.00
28306;BME280;7516;43.570;1.448;2023-02-14T00:13:44;101192.91;;;6.70;100.00
28306;BME280;7516;43.570;1.448;2023-02-14T00:16:27;101196.25;;;6.72;100.00
28306;BME280;7516;43.570;1.448;2023-02-14T00:18:55;101191.88;;;6.73;100.00
28306;BME280;7516;43.570;1.448;2023-02-14T00:21:33;101196.47;;;6.69;100.00
28306;BME280;7516;43.570;1.448;2023-02-14T00:24:02;101191.13;;;6.71;100.00
28306;BME280;7516;43.570;1.448;2023-02-14T00:26:30;101190.31;;;6.70;100.00
28306;BME280;7516;43.570;1.448;2023-02-14T00:28:57;101191.25;;;6.69;100.00
28306;BME280;7516;43.570;1.448;2023-02-14T00:31:25;101177.53;;;6.67;100.00
28306;BME280;7516;43.570;1.448;2023-02-14T00:33:54;101181.06;;;6.66;100.00
28306;BME280;7516;43.570;1.448;2023-02-14T00:36:21;101177.00;;;6.62;100.00
28306;BME280;7516;43.570;1.448;2023-02-14T00:38:49;101165.66;;;6.63;100.00
28306;BME280;7516;43.570;1.448;2023-02-14T00:41:17;101164.94;;;6.61;100.00
28306;BME280;7516;43.570;1.448;2023-02-14T00:43:46;101161.72;;;6.58;100.00
28306;BME280;7516;43.570;1.448;2023-02-14T00:46:14;101159.81;;;6.60;100.00
28306;BME280;7516;43.570;1.448;2023-02-14T00:48:42;101157.13;;;6.61;100.00
28306;BME280;7516;43.570;1.448;2023-02-14T00:51:11;101150.25;;;6.60;100.00
28306;BME280;7516;43.570;1.448;2023-02-14T00:53:39;101145.16;;;6.59;100.00
28306;BME280;7516;43.570;1.448;2023-02-14T00:56:07;101148.47;;;6.61;100.00
28306;BME280;7516;43.570;1.448;2023-02-14T00:58:35;101137.09;;;6.62;100.00
28306;BME280;7516;43.570;1.448;2023-02-14T01:01:03;101139.59;;;6.63;100.00
28306;BME280;7516;43.570;1.448;2023-02-14T01:03:30;101142.31;;;6.62;100.00
28306;BME280;7516;43.570;1.448;2023-02-14T01:05:58;101140.06;;;6.57;100.00
28306;BME280;7516;43.570;1.448;2023-02-14T01:08:27;101138.06;;;6.61;100.00
28306;BME280;7516;43.570;1.448;2023-02-14T01:10:54;101129.66;;;6.57;100.00
28306;BME280;7516;43.570;1.448;2023-02-14T01:13:22;101121.59;;;6.60;100.00
28306;BME280;7516;43.570;1.448;2023-02-14T01:15:51;101121.59;;;6.60;100.00
28306;BME280;7516;43.570;1.448;2023-02-14T01:18:18;101122.56;;;6.59;100.00
28306;BME280;7516;43.570;1.448;2023-02-14T01:20:46;101128.56;;;6.60;100.00
28306;BME280;7516;43.570;1.448;2023-02-14T01:23:14;101127.97;;;6.56;100.00
28306;BME280;7516;43.570;1.448;2023-02-14T01:25:43;101125.28;;;6.58;100.00
28306;BME280;7516;43.570;1.448;2023-02-14T01:28:10;101131.31;;;6.58;100.00
28306;BME280;7516;43.570;1.448;2023-02-14T01:30:38;101127.97;;;6.56;100.00
28306;BME280;7516;43.570;1.448;2023-02-14T01:33:05;101123.91;;;6.52;100.00
28306;BME280;7516;43.570;1.448;2023-02-14T01:35:36;101123.22;;;6.50;100.00
28306;BME280;7516;43.570;1.448;2023-02-14T01:38:04;101116.34;;;6.49;100.00
28306;BME280;7516;43.570;1.448;2023-02-14T01:40:32;101116.84;;;6.54;100.00
28306;BME280;7516;43.570;1.448;2023-02-14T01:43:00;101130.06;;;6.51;100.00
28306;BME280;7516;43.570;1.448;2023-02-14T01:45:28;101120.72;;;6.49;100.00
28306;BME280;7516;43.570;1.448;2023-02-14T01:47:57;101119.78;;;6.50;100.00
28306;BME280;7516;43.570;1.448;2023-02-14T01:50:27;101114.44;;;6.51;100.00
28306;BME280;7516;43.570;1.448;2023-02-14T01:52:58;101112.81;;;6.50;100.00
28306;BME280;7516;43.570;1.448;2023-02-14T01:55:30;101107.38;;;6.53;100.00
28306;BME280;7516;43.570;1.448;2023-02-14T01:58:03;101114.44;;;6.51;100.00
28306;BME280;7516;43.570;1.448;2023-02-14T02:00:32;101107.72;;;6.49;100.00
28306;BME280;7516;43.570;1.448;2023-02-14T02:03:18;101104.88;;;6.52;100.00
28306;BME280;7516;43.570;1.448;2023-02-14T02:05:49;101105.94;;;6.49;100.00
28306;BME280;7516;43.570;1.448;2023-02-14T02:08:18;101103.53;;;6.46;100.00
28306;BME280;7516;43.570;1.448;2023-02-14T02:10:46;101102.59;;;6.47;100.00
28306;BME280;7516;43.570;1.448;2023-02-14T02:13:17;101103.22;;;6.51;100.00
28306;BME280;7516;43.570;1.448;2023-02-14T02:16:03;101111.16;;;6.49;100.00
28306;BME280;7516;43.570;1.448;2023-02-14T02:18:43;101100.13;;;6.46;100.00
28306;BME280;7516;43.570;1.448;2023-02-14T02:21:38;101099.06;;;6.48;100.00
28306;BME280;7516;43.570;1.448;2023-02-14T02:24:30;101094.06;;;6.45;100.00
28306;BME280;7516;43.570;1.448;2023-02-14T02:27:18;101086.25;;;6.45;100.00
28306;BME280;7516;43.570;1.448;2023-02-14T02:33:20;101085.78;;;6.40;100.00
28306;BME280;7516;43.570;1.448;2023-02-14T02:36:10;101077.44;;;6.35;100.00
28306;BME280;7516;43.570;1.448;2023-02-14T02:38:53;101078.06;;;6.38;100.00
28306;BME280;7516;43.570;1.448;2023-02-14T02:41:33;101066.72;;;6.39;100.00
28306;BME280;7516;43.570;1.448;2023-02-14T02:44:12;101063.28;;;6.39;100.00
28306;BME280;7516;43.570;1.448;2023-02-14T02:46:48;101064.94;;;6.40;100.00
28306;BME280;7516;43.570;1.448;2023-02-14T02:49:30;101064.53;;;6.33;100.00
28306;BME280;7516;43.570;1.448;2023-02-14T02:52:22;101063.75;;;6.33;100.00
28306;BME280;7516;43.570;1.448;2023-02-14T02:55:15;101058.81;;;6.41;100.00
28306;BME280;7516;43.570;1.448;2023-02-14T02:57:45;101072.41;;;6.45;100.00
28306;BME280;7516;43.570;1.448;2023-02-14T03:00:14;101055.63;;;6.49;100.00
28306;BME280;7516;43.570;1.448;2023-02-14T03:02:45;101050.53;;;6.47;100.00
28306;BME280;7516;43.570;1.448;2023-02-14T03:05:33;101060.13;;;6.47;100.00
28306;BME280;7516;43.570;1.448;2023-02-14T03:08:04;101067.09;;;6.46;100.00
28306;BME280;7516;43.570;1.448;2023-02-14T03:10:34;101056.19;;;6.41;100.00
28306;BME280;7516;43.570;1.448;2023-02-14T03:16:23;101041.16;;;6.45;100.00
28306;BME280;7516;43.570;1.448;2023-02-14T03:21:51;101035.13;;;6.44;100.00
28306;BME280;7516;43.570;1.448;2023-02-14T03:24:26;101028.25;;;6.43;100.00
28306;BME280;7516;43.570;1.448;2023-02-14T03:27:03;101026.59;;;6.42;100.00
28306;BME280;7516;43.570;1.448;2023-02-14T03:29:43;101027.56;;;6.41;100.00
28306;BME280;7516;43.570;1.448;2023-02-14T03:32:18;101028.50;;;6.40;100.00
28306;BME280;7516;43.570;1.448;2023-02-14T03:34:53;101036.78;;;6.45;100.00
28306;BME280;7516;43.570;1.448;2023-02-14T03:37:27;101029.34;;;6.40;100.00
28306;BME280;7516;43.570;1.448;2023-02-14T03:40:05;101029.09;;;6.43;100.00
28306;BME280;7516;43.570;1.448;2023-02-14T03:42:38;101021.28;;;6.43;100.00
28306;BME280;7516;43.570;1.448;2023-02-14T03:45:11;101014.53;;;6.41;100.00
28306;BME280;7516;43.570;1.448;2023-02-14T03:47:41;101022.00;;;6.46;100.00
28306;BME280;7516;43.570;1.448;2023-02-14T03:50:13;101024.13;;;6.40;100.00
28306;BME280;7516;43.570;1.448;2023-02-14T03:52:42;101016.44;;;6.39;100.00
28306;BME280;7516;43.570;1.448;2023-02-14T03:55:15;101021.13;;;6.34;100.00
28306;BME280;7516;43.570;1.448;2023-02-14T03:57:49;101012.47;;;6.33;100.00
28306;BME280;7516;43.570;1.448;2023-02-14T04:00:18;101013.31;;;6.34;100.00
28306;BME280;7516;43.570;1.448;2023-02-14T04:02:48;101022.78;;;6.35;100.00
28306;BME280;7516;43.570;1.448;2023-02-14T04:05:22;101023.72;;;6.34;100.00
28306;BME280;7516;43.570;1.448;2023-02-14T04:07:51;101029.19;;;6.31;100.00
28306;BME280;7516;43.570;1.448;2023-02-14T04:10:21;101025.03;;;6.28;100.00
28306;BME280;7516;43.570;1.448;2023-02-14T04:12:50;101024.41;;;6.25;100.00
28306;BME280;7516;43.570;1.448;2023-02-14T04:15:18;101041.56;;;6.27;100.00
28306;BME280;7516;43.570;1.448;2023-02-14T04:17:45;101040.84;;;6.25;100.00
28306;BME280;7516;43.570;1.448;2023-02-14T04:20:31;101045.47;;;6.22;100.00
28306;BME280;7516;43.570;1.448;2023-02-14T04:22:59;101048.91;;;6.22;100.00
28306;BME280;7516;43.570;1.448;2023-02-14T04:25:28;101041.69;;;6.26;100.00
28306;BME280;7516;43.570;1.448;2023-02-14T04:27:56;101049.63;;;6.24;100.00
28306;BME280;7516;43.570;1.448;2023-02-14T04:30:23;101043.34;;;6.27;100.00
28306;BME280;7516;43.570;1.448;2023-02-14T04:32:51;101039.41;;;6.21;100.00
28306;BME280;7516;43.570;1.448;2023-02-14T04:35:18;101040.16;;;6.23;100.00
28306;BME280;7516;43.570;1.448;2023-02-14T04:37:46;101032.44;;;6.22;100.00
28306;BME280;7516;43.570;1.448;2023-02-14T04:40:13;101027.97;;;6.24;100.00
28306;BME280;7516;43.570;1.448;2023-02-14T04:42:44;101041.47;;;6.29;100.00
28306;BME280;7516;43.570;1.448;2023-02-14T04:45:12;101031.06;;;6.29;100.00
28306;BME280;7516;43.570;1.448;2023-02-14T04:47:40;101031.16;;;6.27;100.00
28306;BME280;7516;43.570;1.448;2023-02-14T04:50:08;101031.50;;;6.23;100.00
28306;BME280;7516;43.570;1.448;2023-02-14T04:52:36;101027.13;;;6.23;100.00
28306;BME280;7516;43.570;1.448;2023-02-14T04:55:05;101029.38;;;6.28;100.00
28306;BME280;7516;43.570;1.448;2023-02-14T04:57:32;101012.84;;;6.29;100.00
28306;BME280;7516;43.570;1.448;2023-02-14T05:00:01;101020.53;;;6.30;100.00
28306;BME280;7516;43.570;1.448;2023-02-14T05:02:29;101012.09;;;6.27;100.00
28306;BME280;7516;43.570;1.448;2023-02-14T05:04:57;101015.44;;;6.29;100.00
28306;BME280;7516;43.570;1.448;2023-02-14T05:07:24;101011.16;;;6.28;100.00
28306;BME280;7516;43.570;1.448;2023-02-14T05:09:52;101015.66;;;6.26;100.00
28306;BME280;7516;43.570;1.448;2023-02-14T05:12:19;101012.63;;;6.32;100.00
28306;BME280;7516;43.570;1.448;2023-02-14T05:14:47;101016.88;;;6.33;100.00
28306;BME280;7516;43.570;1.448;2023-02-14T05:17:16;101019.91;;;6.27;100.00
28306;BME280;7516;43.570;1.448;2023-02-14T05:19:43;101012.09;;;6.27;100.00
28306;BME280;7516;43.570;1.448;2023-02-14T05:22:11;101013.56;;;6.31;100.00
28306;BME280;7516;43.570;1.448;2023-02-14T05:24:39;101012.63;;;6.32;100.00
28306;BME280;7516;43.570;1.448;2023-02-14T05:27:06;101016.28;;;6.29;100.00
28306;BME280;7516;43.570;1.448;2023-02-14T05:29:36;101005.75;;;6.31;100.00
28306;BME280;7516;43.570;1.448;2023-02-14T05:32:04;101005.03;;;6.29;100.00
28306;BME280;7516;43.570;1.448;2023-02-14T05:34:33;100998.66;;;6.33;100.00
28306;BME280;7516;43.570;1.448;2023-02-14T05:37:01;101011.69;;;6.33;100.00
28306;BME280;7516;43.570;1.448;2023-02-14T05:39:29;101004.31;;;6.27;100.00
28306;BME280;7516;43.570;1.448;2023-02-14T05:41:56;101009.28;;;6.30;100.00
28306;BME280;7516;43.570;1.448;2023-02-14T05:44:24;101010.59;;;6.35;100.00
28306;BME280;7516;43.570;1.448;2023-02-14T05:46:51;101003.53;;;6.37;100.00
28306;BME280;7516;43.570;1.448;2023-02-14T05:49:20;101001.75;;;6.38;100.00
28306;BME280;7516;43.570;1.448;2023-02-14T05:51:49;101004.34;;;6.38;100.00
28306;BME280;7516;43.570;1.448;2023-02-14T05:54:16;101000.69;;;6.40;100.00
28306;BME280;7516;43.570;1.448;2023-02-14T05:56:44;101006.00;;;6.39;100.00
28306;BME280;7516;43.570;1.448;2023-02-14T05:59:11;101015.03;;;6.46;100.00
28306;BME280;7516;43.570;1.448;2023-02-14T06:01:39;101009.81;;;6.46;100.00
28306;BME280;7516;43.570;1.448;2023-02-14T06:04:07;101015.50;;;6.40;100.00
28306;BME280;7516;43.570;1.448;2023-02-14T06:06:34;101005.19;;;6.38;100.00
28306;BME280;7516;43.570;1.448;2023-02-14T06:09:03;101013.94;;;6.37;100.00
28306;BME280;7516;43.570;1.448;2023-02-14T06:11:31;101011.22;;;6.39;100.00
28306;BME280;7516;43.570;1.448;2023-02-14T06:13:58;101006.84;;;6.39;100.00
28306;BME280;7516;43.570;1.448;2023-02-14T06:16:26;101014.66;;;6.39;100.00
28306;BME280;7516;43.570;1.448;2023-02-14T06:18:53;101013.00;;;6.38;100.00
28306;BME280;7516;43.570;1.448;2023-02-14T06:21:21;101010.59;;;6.35;100.00
28306;BME280;7516;43.570;1.448;2023-02-14T06:23:49;101013.22;;;6.35;100.00
28306;BME280;7516;43.570;1.448;2023-02-14T06:26:18;101014.16;;;6.34;100.00
28306;BME280;7516;43.570;1.448;2023-02-14T06:28:45;101009.09;;;6.44;100.00
28306;BME280;7516;43.570;1.448;2023-02-14T06:31:16;101010.75;;;6.45;100.00
28306;BME280;7516;43.570;1.448;2023-02-14T06:33:43;101019.63;;;6.42;100.00
28306;BME280;7516;43.570;1.448;2023-02-14T06:36:11;101014.91;;;6.48;100.00
28306;BME280;7516;43.570;1.448;2023-02-14T06:38:39;101023.06;;;6.43;100.00
28306;BME280;7516;43.570;1.448;2023-02-14T06:41:08;101019.50;;;6.44;100.00
28306;BME280;7516;43.570;1.448;2023-02-14T06:43:38;101026.38;;;6.45;100.00
28306;BME280;7516;43.570;1.448;2023-02-14T06:46:05;101027.22;;;6.46;100.00
28306;BME280;7516;43.570;1.448;2023-02-14T06:48:33;101026.88;;;6.50;100.00
28306;BME280;7516;43.570;1.448;2023-02-14T06:51:01;101024.50;;;6.47;100.00
28306;BME280;7516;43.570;1.448;2023-02-14T06:53:28;101032.22;;;6.49;100.00
28306;BME280;7516;43.570;1.448;2023-02-14T06:55:56;101028.88;;;6.47;100.00
28306;BME280;7516;43.570;1.448;2023-02-14T06:58:23;101033.25;;;6.46;100.00
28306;BME280;7516;43.570;1.448;2023-02-14T07:00:54;101019.28;;;6.47;100.00
28306;BME280;7516;43.570;1.448;2023-02-14T07:03:22;101020.03;;;6.49;100.00
28306;BME280;7516;43.570;1.448;2023-02-14T07:05:50;101019.44;;;6.57;100.00
28306;BME280;7516;43.570;1.448;2023-02-14T07:08:18;101021.94;;;6.58;100.00
28306;BME280;7516;43.570;1.448;2023-02-14T07:10:46;101023.00;;;6.56;100.00
28306;BME280;7516;43.570;1.448;2023-02-14T07:13:14;101019.66;;;6.54;100.00
28306;BME280;7516;43.570;1.448;2023-02-14T07:15:41;101032.34;;;6.58;100.00
28306;BME280;7516;43.570;1.448;2023-02-14T07:18:10;101025.25;;;6.60;100.00
28306;BME280;7516;43.570;1.448;2023-02-14T07:20:38;101029.41;;;6.63;100.00
28306;BME280;7516;43.570;1.448;2023-02-14T07:23:05;101029.41;;;6.63;100.00
28306;BME280;7516;43.570;1.448;2023-02-14T07:25:34;101032.50;;;6.68;100.00
28306;BME280;7516;43.570;1.448;2023-02-14T07:28:02;101038.56;;;6.68;100.00
28306;BME280;7516;43.570;1.448;2023-02-14T07:30:29;101033.59;;;6.76;100.00
28306;BME280;7516;43.570;1.448;2023-02-14T07:32:57;101035.13;;;6.79;100.00
28306;BME280;7516;43.570;1.448;2023-02-14T07:35:26;101042.00;;;6.80;100.00
28306;BME280;7516;43.570;1.448;2023-02-14T07:37:54;101045.94;;;6.86;100.00
28306;BME280;7516;43.570;1.448;2023-02-14T07:40:21;101040.72;;;6.86;100.00
28306;BME280;7516;43.570;1.448;2023-02-14T07:42:52;101045.47;;;6.92;100.00
28306;BME280;7516;43.570;1.448;2023-02-14T07:45:20;101051.50;;;6.92;100.00
28306;BME280;7516;43.570;1.448;2023-02-14T07:47:49;101052.81;;;6.98;100.00
28306;BME280;7516;43.570;1.448;2023-02-14T07:50:17;101056.75;;;7.03;100.00
28306;BME280;7516;43.570;1.448;2023-02-14T07:52:46;101055.66;;;7.06;100.00
28306;BME280;7516;43.570;1.448;2023-02-14T07:55:14;101049.03;;;7.13;100.00
28306;BME280;7516;43.570;1.448;2023-02-14T07:57:42;101041.72;;;7.18;100.00
28306;BME280;7516;43.570;1.448;2023-02-14T08:00:10;101048.81;;;7.27;100.00
28306;BME280;7516;43.570;1.448;2023-02-14T08:02:39;101046.78;;;7.31;100.00
28306;BME280;7516;43.570;1.448;2023-02-14T08:05:07;101036.59;;;7.39;100.00
28306;BME280;7516;43.570;1.448;2023-02-14T08:07:35;101032.72;;;7.44;100.00
28306;BME280;7516;43.570;1.448;2023-02-14T08:10:05;101040.31;;;7.47;100.00
28306;BME280;7516;43.570;1.448;2023-02-14T08:12:33;101038.38;;;7.49;100.00
28306;BME280;7516;43.570;1.448;2023-02-14T08:15:18;101033.88;;;7.51;100.00
28306;BME280;7516;43.570;1.448;2023-02-14T08:18:03;101027.72;;;7.64;100.00
28306;BME280;7516;43.570;1.448;2023-02-14T08:20:31;101029.13;;;7.68;100.00
28306;BME280;7516;43.570;1.448;2023-02-14T08:22:58;101030.06;;;7.78;100.00
28306;BME280;7516;43.570;1.448;2023-02-14T08:25:27;101024.63;;;7.81;100.00
28306;BME280;7516;43.570;1.448;2023-02-14T08:27:55;101025.53;;;7.91;100.00
28306;BME280;7516;43.570;1.448;2023-02-14T08:30:23;101034.66;;;7.97;100.00
28306;BME280;7516;43.570;1.448;2023-02-14T08:32:51;101018.63;;;8.01;100.00
28306;BME280;7516;43.570;1.448;2023-02-14T08:35:19;101027.63;;;8.08;100.00
28306;BME280;7516;43.570;1.448;2023-02-14T08:37:47;101034.25;;;8.12;100.00
28306;BME280;7516;43.570;1.448;2023-02-14T08:40:14;101035.91;;;8.13;100.00
28306;BME280;7516;43.570;1.448;2023-02-14T08:42:43;101034.56;;;8.19;100.00
28306;BME280;7516;43.570;1.448;2023-02-14T08:45:11;101035.16;;;8.22;100.00
28306;BME280;7516;43.570;1.448;2023-02-14T08:47:38;101038.84;;;8.31;100.00
28306;BME280;7516;43.570;1.448;2023-02-14T08:50:08;101035.50;;;8.40;100.00
28306;BME280;7516;43.570;1.448;2023-02-14T08:52:37;101030.72;;;8.45;100.00
28306;BME280;7516;43.570;1.448;2023-02-14T08:55:05;101028.28;;;8.53;100.00
28306;BME280;7516;43.570;1.448;2023-02-14T08:57:32;101022.47;;;8.61;100.00
28306;BME280;7516;43.570;1.448;2023-02-14T09:00:02;101029.91;;;8.65;100.00
28306;BME280;7516;43.570;1.448;2023-02-14T09:02:30;101032.84;;;8.72;100.00
28306;BME280;7516;43.570;1.448;2023-02-14T09:04:57;101033.09;;;8.69;100.00
28306;BME280;7516;43.570;1.448;2023-02-14T09:07:25;101032.34;;;8.78;100.00
28306;BME280;7516;43.570;1.448;2023-02-14T09:09:52;101034.56;;;8.83;100.00
28306;BME280;7516;43.570;1.448;2023-02-14T09:12:20;101032.53;;;8.86;100.00
28306;BME280;7516;43.570;1.448;2023-02-14T09:14:47;101034.63;;;8.92;100.00
28306;BME280;7516;43.570;1.448;2023-02-14T09:17:16;101023.63;;;8.98;100.00
28306;BME280;7516;43.570;1.448;2023-02-14T09:19:44;101027.25;;;9.07;100.00
28306;BME280;7516;43.570;1.448;2023-02-14T09:22:12;101017.97;;;9.14;100.00
28306;BME280;7516;43.570;1.448;2023-02-14T09:24:40;101027.44;;;9.15;100.00
28306;BME280;7516;43.570;1.448;2023-02-14T09:27:08;101021.59;;;9.23;100.00
28306;BME280;7516;43.570;1.448;2023-02-14T09:29:35;101022.00;;;9.28;100.00
28306;BME280;7516;43.570;1.448;2023-02-14T09:32:03;101027.13;;;9.29;100.00
28306;BME280;7516;43.570;1.448;2023-02-14T09:34:33;101016.00;;;9.37;100.00
28306;BME280;7516;43.570;1.448;2023-02-14T09:37:01;101024.13;;;9.43;100.00
28306;BME280;7516;43.570;1.448;2023-02-14T09:39:29;101016.16;;;9.45;100.00
28306;BME280;7516;43.570;1.448;2023-02-14T09:42:04;101025.25;;;9.51;99.55
28306;BME280;7516;43.570;1.448;2023-02-14T09:44:37;101013.44;;;9.56;99.78
28306;BME280;7516;43.570;1.448;2023-02-14T09:47:12;101019.09;;;9.61;100.00
28306;BME280;7516;43.570;1.448;2023-02-14T09:49:45;101019.66;;;9.65;99.82
28306;BME280;7516;43.570;1.448;2023-02-14T09:52:15;101015.97;;;9.67;99.32
28306;BME280;7516;43.570;1.448;2023-02-14T09:54:50;101014.47;;;9.74;99.48
28306;BME280;7516;43.570;1.448;2023-02-14T09:57:23;101022.59;;;9.81;99.46
28306;BME280;7516;43.570;1.448;2023-02-14T10:00:02;101015.84;;;9.88;98.46
28306;BME280;7516;43.570;1.448;2023-02-14T10:02:45;101013.81;;;9.92;97.66
28306;BME280;7516;43.570;1.448;2023-02-14T10:05:18;101032.28;;;10.00;97.98
28306;BME280;7516;43.570;1.448;2023-02-14T10:07:58;101014.78;;;10.00;97.55
28306;BME280;7516;43.570;1.448;2023-02-14T10:10:30;101019.59;;;10.05;97.40
28306;BME280;7516;43.570;1.448;2023-02-14T10:13:03;101012.44;;;10.07;96.66
28306;BME280;7516;43.570;1.448;2023-02-14T10:15:36;101026.22;;;10.09;97.34
28306;BME280;7516;43.570;1.448;2023-02-14T10:18:10;101016.16;;;10.14;97.03
28306;BME280;7516;43.570;1.448;2023-02-14T10:20:44;101020.22;;;10.18;96.70
28306;BME280;7516;43.570;1.448;2023-02-14T10:23:24;101010.13;;;10.23;96.37
28306;BME280;7516;43.570;1.448;2023-02-14T10:25:56;101009.88;;;10.26;95.90
28306;BME280;7516;43.570;1.448;2023-02-14T10:28:31;101008.78;;;10.29;95.34
28306;BME280;7516;43.570;1.448;2023-02-14T10:31:15;100998.13;;;10.30;95.61
28306;BME280;7516;43.570;1.448;2023-02-14T10:33:51;101000.88;;;10.38;94.38
28306;BME280;7516;43.570;1.448;2023-02-14T10:36:39;101007.91;;;10.47;94.45
28306;BME280;7516;43.570;1.448;2023-02-14T10:39:29;101005.03;;;10.50;94.41
28306;BME280;7516;43.570;1.448;2023-02-14T10:42:08;101000.88;;;10.57;93.56
28306;BME280;7516;43.570;1.448;2023-02-14T10:44:46;101000.59;;;10.61;93.42
28306;BME280;7516;43.570;1.448;2023-02-14T10:47:30;101001.16;;;10.64;93.20
28306;BME280;7516;43.570;1.448;2023-02-14T10:50:10;100996.44;;;10.68;92.25
28306;BME280;7516;43.570;1.448;2023-02-14T10:52:46;101010.94;;;10.72;93.18
28306;BME280;7516;43.570;1.448;2023-02-14T10:55:21;101002.78;;;10.75;92.53
28306;BME280;7516;43.570;1.448;2023-02-14T10:57:52;100988.44;;;10.79;92.26
28306;BME280;7516;43.570;1.448;2023-02-14T11:00:22;100975.72;;;10.84;91.37
28306;BME280;7516;43.570;1.448;2023-02-14T11:02:56;100965.78;;;10.87;90.37
28306;BME280;7516;43.570;1.448;2023-02-14T11:05:26;100980.09;;;10.93;90.17
28306;BME280;7516;43.570;1.448;2023-02-14T11:07:56;100970.28;;;10.95;89.58
28306;BME280;7516;43.570;1.448;2023-02-14T11:10:28;100966.72;;;10.96;89.94
28306;BME280;7516;43.570;1.448;2023-02-14T11:12:57;100970.69;;;11.00;90.00
28306;BME280;7516;43.570;1.448;2023-02-14T11:15:27;100959.09;;;11.03;89.40
28306;BME280;7516;43.570;1.448;2023-02-14T11:18:12;100956.88;;;11.08;89.69
28306;BME280;7516;43.570;1.448;2023-02-14T11:20:42;100949.66;;;11.10;90.51
28306;BME280;7516;43.570;1.448;2023-02-14T11:23:22;100945.66;;;11.15;89.54
28306;BME280;7516;43.570;1.448;2023-02-14T11:25:51;100944.38;;;11.19;90.05
28306;BME280;7516;43.570;1.448;2023-02-14T11:28:21;100946.44;;;11.25;89.81
28306;BME280;7516;43.570;1.448;2023-02-14T11:30:50;100937.44;;;11.28;89.47
28306;BME280;7516;43.570;1.448;2023-02-14T11:33:36;100936.03;;;11.34;88.66
28306;BME280;7516;43.570;1.448;2023-02-14T11:36:10;100926.88;;;11.38;88.10
28306;BME280;7516;43.570;1.448;2023-02-14T11:38:40;100917.75;;;11.42;88.13
28306;BME280;7516;43.570;1.448;2023-02-14T11:41:11;100907.91;;;11.44;87.65
28306;BME280;7516;43.570;1.448;2023-02-14T11:43:41;100884.69;;;11.49;87.07
28306;BME280;7516;43.570;1.448;2023-02-14T11:46:16;100895.88;;;11.51;85.43
28306;BME280;7516;43.570;1.448;2023-02-14T11:48:56;100902.78;;;11.52;86.75
28306;BME280;7516;43.570;1.448;2023-02-14T11:51:32;100901.78;;;11.53;85.31
28306;BME280;7516;43.570;1.448;2023-02-14T11:54:03;100897.88;;;11.57;86.06
28306;BME280;7516;43.570;1.448;2023-02-14T11:56:47;100890.09;;;11.65;84.60
28306;BME280;7516;43.570;1.448;2023-02-14T11:59:25;100885.53;;;11.67;84.64
28306;BME280;7516;43.570;1.448;2023-02-14T12:01:56;100884.22;;;11.71;84.15
28306;BME280;7516;43.570;1.448;2023-02-14T12:04:31;100892.78;;;11.73;84.57
28306;BME280;7516;43.570;1.448;2023-02-14T12:07:14;100880.78;;;11.70;84.48
28306;BME280;7516;43.570;1.448;2023-02-14T12:09:45;100875.53;;;11.70;84.51
28306;BME280;7516;43.570;1.448;2023-02-14T12:12:20;100875.13;;;11.75;84.23
28306;BME280;7516;43.570;1.448;2023-02-14T12:14:48;100872.84;;;11.80;82.81
28306;BME280;7516;43.570;1.448;2023-02-14T12:17:27;100867.47;;;11.82;84.01
28306;BME280;7516;43.570;1.448;2023-02-14T12:20:03;100861.22;;;11.83;81.97
28306;BME280;7516;43.570;1.448;2023-02-14T12:22:39;100860.13;;;11.85;81.34
28306;BME280;7516;43.570;1.448;2023-02-14T12:25:14;100849.97;;;11.90;80.76
28306;BME280;7516;43.570;1.448;2023-02-14T12:27:48;100847.19;;;11.92;82.04
28306;BME280;7516;43.570;1.448;2023-02-14T12:30:19;100851.97;;;11.96;80.88
28306;BME280;7516;43.570;1.448;2023-02-14T12:32:48;100842.53;;;12.03;82.67
28306;BME280;7516;43.570;1.448;2023-02-14T12:35:18;100830.50;;;12.01;81.01
28306;BME280;7516;43.570;1.448;2023-02-14T12:38:01;100836.94;;;12.06;82.14
28306;BME280;7516;43.570;1.448;2023-02-14T12:40:39;100839.28;;;12.10;81.80
28306;BME280;7516;43.570;1.448;2023-02-14T12:43:31;100832.06;;;12.12;82.43
28306;BME280;7516;43.570;1.448;2023-02-14T12:46:16;100824.19;;;12.12;81.57
28306;BME280;7516;43.570;1.448;2023-02-14T12:49:00;100831.75;;;12.15;80.78
28306;BME280;7516;43.570;1.448;2023-02-14T12:51:36;100821.59;;;12.20;80.13
28306;BME280;7516;43.570;1.448;2023-02-14T12:54:18;100823.41;;;12.19;80.48
28306;BME280;7516;43.570;1.448;2023-02-14T12:56:58;100823.31;;;12.29;80.07
28306;BME280;7516;43.570;1.448;2023-02-14T12:59:36;100809.19;;;12.30;80.84
28306;BME280;7516;43.570;1.448;2023-02-14T13:02:46;100816.28;;;12.37;80.60
28306;BME280;7516;43.570;1.448;2023-02-14T13:05:21;100815.47;;;12.37;79.83
28306;BME280;7516;43.570;1.448;2023-02-14T13:08:06;100812.16;;;12.35;78.15
28306;BME280;7516;43.570;1.448;2023-02-14T13:10:48;100813.81;;;12.36;77.79
28306;BME280;7516;43.570;1.448;2023-02-14T13:13:24;100810.22;;;12.37;78.12
28306;BME280;7516;43.570;1.448;2023-02-14T13:16:05;100806.59;;;12.38;78.88
28306;BME280;7516;43.570;1.448;2023-02-14T13:18:42;100799.88;;;12.43;78.05
28306;BME280;7516;43.570;1.448;2023-02-14T13:21:15;100793.50;;;12.46;77.85
28306;BME280;7516;43.570;1.448;2023-02-14T13:23:46;100790.19;;;12.44;79.08
28306;BME280;7516;43.570;1.448;2023-02-14T13:26:19;100794.47;;;12.45;78.61
28306;BME280;7516;43.570;1.448;2023-02-14T13:28:51;100790.03;;;12.46;79.11
28306;BME280;7516;43.570;1.448;2023-02-14T13:31:22;100792.66;;;12.46;79.01
28306;BME280;7516;43.570;1.448;2023-02-14T13:33:53;100794.50;;;12.53;78.60